sensor_id;sensor_type;location;lat;lon;timestamp;P1;durP1;ratioP1;P2;durP2;ratioP2
61291;SDS011;47165;42.664;23.368;2023-05-10T00:02:22;1.98;;;1.33;;
61291;SDS011;47165;42.664;23.368;2023-05-10T00:04:48;3.10;;;1.52;;
61291;SDS011;47165;42.664;23.368;2023-05-10T00:07:13;5.53;;;2.22;;
61291;SDS011;47165;42.664;23.368;2023-05-10T00:09:39;3.38;;;1.38;;
61291;SDS011;47165;42.664;23.368;2023-05-10T00:12:05;2.85;;;1.35;;
61291;SDS011;47165;42.664;23.368;2023-05-10T00:14:30;1.80;;;1.50;;
61291;SDS011;47165;42.664;23.368;2023-05-10T00:16:56;4.63;;;2.55;;
61291;SDS011;47165;42.664;23.368;2023-05-10T00:19:21;2.85;;;1.88;;
61291;SDS011;47165;42.664;23.368;2023-05-10T00:21:47;5.70;;;2.50;;
61291;SDS011;47165;42.664;23.368;2023-05-10T00:24:12;3.35;;;1.55;;
61291;SDS011;47165;42.664;23.368;2023-05-10T00:26:38;2.42;;;1.70;;
61291;SDS011;47165;42.664;23.368;2023-05-10T00:29:03;3.13;;;1.75;;
61291;SDS011;47165;42.664;23.368;2023-05-10T00:31:28;3.20;;;1.88;;
61291;SDS011;47165;42.664;23.368;2023-05-10T00:33:54;3.13;;;2.10;;
61291;SDS011;47165;42.664;23.368;2023-05-10T00:36:20;3.05;;;1.80;;
61291;SDS011;47165;42.664;23.368;2023-05-10T00:38:46;3.85;;;2.42;;
61291;SDS011;47165;42.664;23.368;2023-05-10T00:41:11;3.03;;;1.85;;
61291;SDS011;47165;42.664;23.368;2023-05-10T00:43:36;2.78;;;1.95;;
61291;SDS011;47165;42.664;23.368;2023-05-10T00:46:02;3.50;;;2.00;;
61291;SDS011;47165;42.664;23.368;2023-05-10T00:48:28;4.25;;;2.20;;
61291;SDS011;47165;42.664;23.368;2023-05-10T00:50:54;2.78;;;1.67;;
61291;SDS011;47165;42.664;23.368;2023-05-10T00:53:20;2.85;;;1.65;;
61291;SDS011;47165;42.664;23.368;2023-05-10T00:55:46;2.97;;;1.80;;
61291;SDS011;47165;42.664;23.368;2023-05-10T00:58:12;5.05;;;2.35;;
61291;SDS011;47165;42.664;23.368;2023-05-10T01:00:37;5.20;;;2.60;;
61291;SDS011;47165;42.664;23.368;2023-05-10T01:03:06;2.83;;;1.75;;
61291;SDS011;47165;42.664;23.368;2023-05-10T01:05:31;4.10;;;2.90;;
61291;SDS011;47165;42.664;23.368;2023-05-10T01:07:57;3.88;;;2.53;;
61291;SDS011;47165;42.664;23.368;2023-05-10T01:10:22;2.35;;;1.70;;
61291;SDS011;47165;42.664;23.368;2023-05-10T01:12:48;4.57;;;2.55;;
61291;SDS011;47165;42.664;23.368;2023-05-10T01:15:13;3.05;;;2.35;;
61291;SDS011;47165;42.664;23.368;2023-05-10T01:17:42;1.58;;;1.48;;
61291;SDS011;47165;42.664;23.368;2023-05-10T01:20:09;3.33;;;2.08;;
61291;SDS011;47165;42.664;23.368;2023-05-10T01:34:16;2.33;;;1.73;;
61291;SDS011;47165;42.664;23.368;2023-05-10T01:36:45;3.40;;;1.52;;
61291;SDS011;47165;42.664;23.368;2023-05-10T01:39:41;3.13;;;1.95;;
61291;SDS011;47165;42.664;23.368;2023-05-10T01:42:11;2.05;;;1.40;;
61291;SDS011;47165;42.664;23.368;2023-05-10T01:44:58;2.42;;;1.35;;
61291;SDS011;47165;42.664;23.368;2023-05-10T01:47:50;1.88;;;1.20;;
61291;SDS011;47165;42.664;23.368;2023-05-10T01:50:35;2.10;;;1.33;;
61291;SDS011;47165;42.664;23.368;2023-05-10T01:53:02;2.35;;;1.50;;
61291;SDS011;47165;42.664;23.368;2023-05-10T01:55:33;2.58;;;1.60;;
61291;SDS011;47165;42.664;23.368;2023-05-10T01:58:09;2.30;;;1.55;;
61291;SDS011;47165;42.664;23.368;2023-05-10T02:00:40;3.35;;;1.73;;
61291;SDS011;47165;42.664;23.368;2023-05-10T02:03:08;1.85;;;1.38;;
61291;SDS011;47165;42.664;23.368;2023-05-10T02:05:35;4.57;;;2.50;;
61291;SDS011;47165;42.664;23.368;2023-05-10T02:08:03;3.13;;;1.85;;
61291;SDS011;47165;42.664;23.368;2023-05-10T02:10:32;1.30;;;1.13;;
61291;SDS011;47165;42.664;23.368;2023-05-10T02:12:59;5.43;;;2.92;;
61291;SDS011;47165;42.664;23.368;2023-05-10T02:15:28;2.38;;;1.52;;
61291;SDS011;47165;42.664;23.368;2023-05-10T02:17:55;2.08;;;1.60;;
61291;SDS011;47165;42.664;23.368;2023-05-10T02:20:21;6.93;;;4.28;;
61291;SDS011;47165;42.664;23.368;2023-05-10T02:22:51;2.42;;;1.55;;
61291;SDS011;47165;42.664;23.368;2023-05-10T02:25:19;2.33;;;1.88;;
61291;SDS011;47165;42.664;23.368;2023-05-10T02:27:46;3.45;;;2.05;;
61291;SDS011;47165;42.664;23.368;2023-05-10T02:30:13;3.47;;;2.58;;
61291;SDS011;47165;42.664;23.368;2023-05-10T02:32:39;3.58;;;2.22;;
61291;SDS011;47165;42.664;23.368;2023-05-10T02:35:06;7.55;;;2.28;;
61291;SDS011;47165;42.664;23.368;2023-05-10T02:37:33;2.17;;;1.08;;
61291;SDS011;47165;42.664;23.368;2023-05-10T02:40:01;3.70;;;2.08;;
61291;SDS011;47165;42.664;23.368;2023-05-10T02:42:31;2.20;;;1.98;;
61291;SDS011;47165;42.664;23.368;2023-05-10T02:45:00;4.18;;;2.90;;
61291;SDS011;47165;42.664;23.368;2023-05-10T02:47:28;3.50;;;2.42;;
61291;SDS011;47165;42.664;23.368;2023-05-10T02:49:54;3.65;;;2.35;;
61291;SDS011;47165;42.664;23.368;2023-05-10T02:52:24;4.53;;;2.83;;
61291;SDS011;47165;42.664;23.368;2023-05-10T02:54:54;7.65;;;3.50;;
61291;SDS011;47165;42.664;23.368;2023-05-10T02:57:27;1.95;;;1.52;;
61291;SDS011;47165;42.664;23.368;2023-05-10T02:59:56;2.35;;;1.50;;
61291;SDS011;47165;42.664;23.368;2023-05-10T03:02:22;4.00;;;2.67;;
61291;SDS011;47165;42.664;23.368;2023-05-10T03:04:48;3.33;;;1.67;;
61291;SDS011;47165;42.664;23.368;2023-05-10T03:07:13;2.90;;;2.25;;
61291;SDS011;47165;42.664;23.368;2023-05-10T03:09:39;1.33;;;1.15;;
61291;SDS011;47165;42.664;23.368;2023-05-10T03:12:27;2.15;;;1.35;;
61291;SDS011;47165;42.664;23.368;2023-05-10T03:17:52;3.42;;;1.42;;
61291;SDS011;47165;42.664;23.368;2023-05-10T03:20:37;1.58;;;1.10;;
61291;SDS011;47165;42.664;23.368;2023-05-10T03:23:33;2.55;;;1.23;;
61291;SDS011;47165;42.664;23.368;2023-05-10T03:25:55;3.60;;;2.15;;
61291;SDS011;47165;42.664;23.368;2023-05-10T03:28:20;2.80;;;1.30;;
61291;SDS011;47165;42.664;23.368;2023-05-10T03:30:47;2.90;;;1.77;;
61291;SDS011;47165;42.664;23.368;2023-05-10T03:33:12;1.73;;;1.00;;
61291;SDS011;47165;42.664;23.368;2023-05-10T03:35:39;2.92;;;1.50;;
61291;SDS011;47165;42.664;23.368;2023-05-10T03:38:04;1.48;;;1.23;;
61291;SDS011;47165;42.664;23.368;2023-05-10T03:40:30;2.58;;;1.63;;
61291;SDS011;47165;42.664;23.368;2023-05-10T03:42:57;2.72;;;1.75;;
61291;SDS011;47165;42.664;23.368;2023-05-10T03:45:23;1.65;;;1.10;;
61291;SDS011;47165;42.664;23.368;2023-05-10T03:47:48;2.60;;;1.38;;
61291;SDS011;47165;42.664;23.368;2023-05-10T03:50:14;2.88;;;1.83;;
61291;SDS011;47165;42.664;23.368;2023-05-10T03:52:39;3.80;;;1.70;;
61291;SDS011;47165;42.664;23.368;2023-05-10T03:55:05;5.60;;;1.67;;
61291;SDS011;47165;42.664;23.368;2023-05-10T03:57:31;4.25;;;1.40;;
61291;SDS011;47165;42.664;23.368;2023-05-10T03:59:57;2.28;;;1.48;;
61291;SDS011;47165;42.664;23.368;2023-05-10T04:02:22;4.35;;;1.85;;
61291;SDS011;47165;42.664;23.368;2023-05-10T04:04:47;2.85;;;1.65;;
61291;SDS011;47165;42.664;23.368;2023-05-10T04:07:13;2.63;;;1.70;;
61291;SDS011;47165;42.664;23.368;2023-05-10T04:09:39;4.43;;;2.00;;
61291;SDS011;47165;42.664;23.368;2023-05-10T04:12:04;3.05;;;1.60;;
61291;SDS011;47165;42.664;23.368;2023-05-10T04:14:30;3.60;;;1.63;;
61291;SDS011;47165;42.664;23.368;2023-05-10T04:16:56;3.20;;;1.92;;
61291;SDS011;47165;42.664;23.368;2023-05-10T04:19:21;4.13;;;1.70;;
61291;SDS011;47165;42.664;23.368;2023-05-10T04:21:46;2.70;;;1.42;;
61291;SDS011;47165;42.664;23.368;2023-05-10T04:24:12;3.15;;;1.73;;
61291;SDS011;47165;42.664;23.368;2023-05-10T04:26:37;2.40;;;1.58;;
61291;SDS011;47165;42.664;23.368;2023-05-10T04:29:03;3.33;;;1.85;;
61291;SDS011;47165;42.664;23.368;2023-05-10T04:31:28;4.78;;;2.17;;
61291;SDS011;47165;42.664;23.368;2023-05-10T04:33:53;2.80;;;1.50;;
61291;SDS011;47165;42.664;23.368;2023-05-10T04:36:19;2.03;;;1.30;;
61291;SDS011;47165;42.664;23.368;2023-05-10T04:38:44;3.42;;;1.83;;
61291;SDS011;47165;42.664;23.368;2023-05-10T04:41:10;3.55;;;2.33;;
61291;SDS011;47165;42.664;23.368;2023-05-10T04:43:36;2.97;;;1.63;;
61291;SDS011;47165;42.664;23.368;2023-05-10T04:46:02;2.13;;;1.52;;
61291;SDS011;47165;42.664;23.368;2023-05-10T04:48:28;2.60;;;1.52;;
61291;SDS011;47165;42.664;23.368;2023-05-10T04:50:54;3.60;;;1.35;;
61291;SDS011;47165;42.664;23.368;2023-05-10T04:53:20;2.58;;;1.50;;
61291;SDS011;47165;42.664;23.368;2023-05-10T04:55:45;2.20;;;1.77;;
61291;SDS011;47165;42.664;23.368;2023-05-10T04:58:11;2.22;;;1.42;;
61291;SDS011;47165;42.664;23.368;2023-05-10T05:00:37;2.83;;;1.60;;
61291;SDS011;47165;42.664;23.368;2023-05-10T05:03:02;2.75;;;1.83;;
61291;SDS011;47165;42.664;23.368;2023-05-10T05:05:28;4.20;;;2.50;;
61291;SDS011;47165;42.664;23.368;2023-05-10T05:07:53;3.72;;;1.83;;
61291;SDS011;47165;42.664;23.368;2023-05-10T05:10:19;3.03;;;1.42;;
61291;SDS011;47165;42.664;23.368;2023-05-10T05:12:44;3.63;;;2.55;;
61291;SDS011;47165;42.664;23.368;2023-05-10T05:15:10;3.33;;;2.08;;
61291;SDS011;47165;42.664;23.368;2023-05-10T05:17:36;3.75;;;2.05;;
61291;SDS011;47165;42.664;23.368;2023-05-10T05:20:01;3.33;;;1.70;;
61291;SDS011;47165;42.664;23.368;2023-05-10T05:22:28;4.80;;;2.17;;
61291;SDS011;47165;42.664;23.368;2023-05-10T05:24:53;2.25;;;1.55;;
61291;SDS011;47165;42.664;23.368;2023-05-10T05:27:20;2.70;;;1.35;;
61291;SDS011;47165;42.664;23.368;2023-05-10T05:29:49;2.35;;;1.52;;
61291;SDS011;47165;42.664;23.368;2023-05-10T05:32:14;2.22;;;1.83;;
61291;SDS011;47165;42.664;23.368;2023-05-10T05:34:40;2.38;;;1.55;;
61291;SDS011;47165;42.664;23.368;2023-05-10T05:37:05;3.28;;;1.55;;
61291;SDS011;47165;42.664;23.368;2023-05-10T05:39:31;3.53;;;1.98;;
61291;SDS011;47165;42.664;23.368;2023-05-10T05:41:56;2.90;;;1.98;;
61291;SDS011;47165;42.664;23.368;2023-05-10T05:44:22;3.20;;;1.65;;
61291;SDS011;47165;42.664;23.368;2023-05-10T05:46:47;3.30;;;2.05;;
61291;SDS011;47165;42.664;23.368;2023-05-10T05:49:12;2.50;;;1.35;;
61291;SDS011;47165;42.664;23.368;2023-05-10T05:51:38;3.28;;;1.88;;
61291;SDS011;47165;42.664;23.368;2023-05-10T05:54:03;2.95;;;2.05;;
61291;SDS011;47165;42.664;23.368;2023-05-10T05:56:29;4.82;;;2.75;;
61291;SDS011;47165;42.664;23.368;2023-05-10T05:58:55;2.72;;;1.73;;
61291;SDS011;47165;42.664;23.368;2023-05-10T06:01:20;1.92;;;1.55;;
61291;SDS011;47165;42.664;23.368;2023-05-10T06:03:46;1.77;;;1.40;;
61291;SDS011;47165;42.664;23.368;2023-05-10T06:06:11;2.83;;;1.95;;
61291;SDS011;47165;42.664;23.368;2023-05-10T06:08:37;5.72;;;2.67;;
61291;SDS011;47165;42.664;23.368;2023-05-10T06:11:03;9.05;;;2.80;;
61291;SDS011;47165;42.664;23.368;2023-05-10T06:13:29;2.60;;;1.65;;
61291;SDS011;47165;42.664;23.368;2023-05-10T06:15:57;3.15;;;1.85;;
61291;SDS011;47165;42.664;23.368;2023-05-10T06:18:25;4.28;;;1.77;;
61291;SDS011;47165;42.664;23.368;2023-05-10T06:20:51;5.07;;;2.95;;
61291;SDS011;47165;42.664;23.368;2023-05-10T06:23:16;4.07;;;2.15;;
61291;SDS011;47165;42.664;23.368;2023-05-10T06:25:42;3.78;;;1.95;;
61291;SDS011;47165;42.664;23.368;2023-05-10T06:28:07;2.92;;;1.75;;
61291;SDS011;47165;42.664;23.368;2023-05-10T06:30:33;4.10;;;1.95;;
61291;SDS011;47165;42.664;23.368;2023-05-10T06:32:58;2.65;;;1.88;;
61291;SDS011;47165;42.664;23.368;2023-05-10T06:35:24;3.22;;;1.48;;
61291;SDS011;47165;42.664;23.368;2023-05-10T06:37:49;3.28;;;1.77;;
61291;SDS011;47165;42.664;23.368;2023-05-10T06:40:15;4.57;;;2.60;;
61291;SDS011;47165;42.664;23.368;2023-05-10T06:42:41;3.10;;;2.08;;
61291;SDS011;47165;42.664;23.368;2023-05-10T06:45:07;4.63;;;2.30;;
61291;SDS011;47165;42.664;23.368;2023-05-10T06:47:33;3.83;;;1.65;;
61291;SDS011;47165;42.664;23.368;2023-05-10T06:49:58;3.95;;;2.10;;
61291;SDS011;47165;42.664;23.368;2023-05-10T06:52:24;3.97;;;2.05;;
61291;SDS011;47165;42.664;23.368;2023-05-10T06:54:50;2.42;;;1.67;;
61291;SDS011;47165;42.664;23.368;2023-05-10T06:57:15;3.38;;;2.15;;
61291;SDS011;47165;42.664;23.368;2023-05-10T06:59:40;3.58;;;2.05;;
61291;SDS011;47165;42.664;23.368;2023-05-10T07:02:06;3.22;;;2.05;;
61291;SDS011;47165;42.664;23.368;2023-05-10T07:04:31;5.72;;;2.13;;
61291;SDS011;47165;42.664;23.368;2023-05-10T07:06:57;3.55;;;2.15;;
61291;SDS011;47165;42.664;23.368;2023-05-10T07:09:23;4.90;;;3.25;;
61291;SDS011;47165;42.664;23.368;2023-05-10T07:11:49;3.58;;;2.30;;
61291;SDS011;47165;42.664;23.368;2023-05-10T07:14:15;4.10;;;2.13;;
61291;SDS011;47165;42.664;23.368;2023-05-10T07:16:40;8.27;;;4.32;;
61291;SDS011;47165;42.664;23.368;2023-05-10T07:19:05;3.33;;;1.77;;
61291;SDS011;47165;42.664;23.368;2023-05-10T07:21:31;1.45;;;1.35;;
61291;SDS011;47165;42.664;23.368;2023-05-10T07:23:57;4.03;;;2.30;;
61291;SDS011;47165;42.664;23.368;2023-05-10T07:26:22;4.63;;;3.20;;
61291;SDS011;47165;42.664;23.368;2023-05-10T07:28:49;3.38;;;2.30;;
61291;SDS011;47165;42.664;23.368;2023-05-10T07:31:14;4.30;;;2.38;;
61291;SDS011;47165;42.664;23.368;2023-05-10T07:33:39;2.88;;;2.15;;
61291;SDS011;47165;42.664;23.368;2023-05-10T07:36:05;4.85;;;3.65;;
61291;SDS011;47165;42.664;23.368;2023-05-10T07:38:31;4.18;;;2.40;;
61291;SDS011;47165;42.664;23.368;2023-05-10T07:40:56;4.00;;;2.78;;
61291;SDS011;47165;42.664;23.368;2023-05-10T07:43:22;4.07;;;2.10;;
61291;SDS011;47165;42.664;23.368;2023-05-10T07:45:47;7.22;;;2.83;;
61291;SDS011;47165;42.664;23.368;2023-05-10T07:48:12;4.20;;;2.53;;
61291;SDS011;47165;42.664;23.368;2023-05-10T07:50:38;6.93;;;3.25;;
61291;SDS011;47165;42.664;23.368;2023-05-10T07:53:03;8.32;;;4.05;;
61291;SDS011;47165;42.664;23.368;2023-05-10T07:55:29;4.80;;;2.15;;
61291;SDS011;47165;42.664;23.368;2023-05-10T07:57:54;6.22;;;3.85;;
61291;SDS011;47165;42.664;23.368;2023-05-10T08:00:20;6.65;;;4.07;;
61291;SDS011;47165;42.664;23.368;2023-05-10T08:02:46;4.20;;;3.17;;
61291;SDS011;47165;42.664;23.368;2023-05-10T08:05:12;6.60;;;4.43;;
61291;SDS011;47165;42.664;23.368;2023-05-10T08:07:38;7.80;;;4.78;;
61291;SDS011;47165;42.664;23.368;2023-05-10T08:10:04;3.72;;;2.35;;
61291;SDS011;47165;42.664;23.368;2023-05-10T08:12:30;5.03;;;3.60;;
61291;SDS011;47165;42.664;23.368;2023-05-10T08:14:56;9.10;;;3.85;;
61291;SDS011;47165;42.664;23.368;2023-05-10T08:17:22;8.18;;;4.70;;
61291;SDS011;47165;42.664;23.368;2023-05-10T08:19:47;10.23;;;4.75;;
61291;SDS011;47165;42.664;23.368;2023-05-10T08:22:12;8.07;;;4.43;;
61291;SDS011;47165;42.664;23.368;2023-05-10T08:24:38;5.78;;;3.13;;
61291;SDS011;47165;42.664;23.368;2023-05-10T08:27:07;4.38;;;2.63;;
61291;SDS011;47165;42.664;23.368;2023-05-10T08:29:33;5.05;;;2.45;;
61291;SDS011;47165;42.664;23.368;2023-05-10T08:31:58;6.00;;;4.10;;
61291;SDS011;47165;42.664;23.368;2023-05-10T08:34:25;6.68;;;3.72;;
61291;SDS011;47165;42.664;23.368;2023-05-10T08:36:51;5.85;;;3.22;;
61291;SDS011;47165;42.664;23.368;2023-05-10T08:39:17;7.82;;;3.85;;
61291;SDS011;47165;42.664;23.368;2023-05-10T08:41:43;6.13;;;2.72;;
61291;SDS011;47165;42.664;23.368;2023-05-10T08:44:11;7.70;;;3.65;;
61291;SDS011;47165;42.664;23.368;2023-05-10T08:46:37;6.45;;;3.50;;
61291;SDS011;47165;42.664;23.368;2023-05-10T08:49:09;4.88;;;3.13;;
61291;SDS011;47165;42.664;23.368;2023-05-10T08:51:38;6.68;;;4.45;;
61291;SDS011;47165;42.664;23.368;2023-05-10T08:54:07;5.45;;;3.17;;
61291;SDS011;47165;42.664;23.368;2023-05-10T08:56:32;5.38;;;3.97;;
61291;SDS011;47165;42.664;23.368;2023-05-10T08:58:58;4.15;;;2.05;;
61291;SDS011;47165;42.664;23.368;2023-05-10T09:01:24;5.55;;;3.55;;
61291;SDS011;47165;42.664;23.368;2023-05-10T09:03:50;6.57;;;3.55;;
61291;SDS011;47165;42.664;23.368;2023-05-10T09:06:16;6.50;;;4.03;;
61291;SDS011;47165;42.664;23.368;2023-05-10T09:08:42;7.07;;;3.10;;
61291;SDS011;47165;42.664;23.368;2023-05-10T09:11:08;5.82;;;3.17;;
61291;SDS011;47165;42.664;23.368;2023-05-10T09:13:35;6.05;;;3.80;;
61291;SDS011;47165;42.664;23.368;2023-05-10T09:16:02;8.25;;;5.00;;
61291;SDS011;47165;42.664;23.368;2023-05-10T09:18:28;5.95;;;3.13;;
61291;SDS011;47165;42.664;23.368;2023-05-10T09:20:54;4.97;;;2.72;;
61291;SDS011;47165;42.664;23.368;2023-05-10T09:23:19;9.68;;;4.93;;
61291;SDS011;47165;42.664;23.368;2023-05-10T09:25:45;8.35;;;4.95;;
61291;SDS011;47165;42.664;23.368;2023-05-10T09:28:11;7.93;;;3.55;;
61291;SDS011;47165;42.664;23.368;2023-05-10T09:30:37;4.50;;;3.10;;
61291;SDS011;47165;42.664;23.368;2023-05-10T09:33:02;6.22;;;4.10;;
61291;SDS011;47165;42.664;23.368;2023-05-10T09:35:29;4.60;;;3.42;;
61291;SDS011;47165;42.664;23.368;2023-05-10T09:37:57;5.97;;;3.50;;
61291;SDS011;47165;42.664;23.368;2023-05-10T09:40:25;8.63;;;3.88;;
61291;SDS011;47165;42.664;23.368;2023-05-10T09:43:07;3.83;;;2.70;;
61291;SDS011;47165;42.664;23.368;2023-05-10T09:45:33;6.82;;;4.97;;
61291;SDS011;47165;42.664;23.368;2023-05-10T09:48:01;3.63;;;2.55;;
61291;SDS011;47165;42.664;23.368;2023-05-10T09:50:28;4.50;;;2.78;;
61291;SDS011;47165;42.664;23.368;2023-05-10T09:52:55;4.97;;;2.92;;
61291;SDS011;47165;42.664;23.368;2023-05-10T09:55:23;5.63;;;3.53;;
61291;SDS011;47165;42.664;23.368;2023-05-10T09:57:58;6.28;;;4.05;;
61291;SDS011;47165;42.664;23.368;2023-05-10T10:00:25;6.75;;;3.95;;
61291;SDS011;47165;42.664;23.368;2023-05-10T10:02:55;8.82;;;5.95;;
61291;SDS011;47165;42.664;23.368;2023-05-10T10:05:32;6.97;;;4.32;;
61291;SDS011;47165;42.664;23.368;2023-05-10T10:07:58;5.07;;;3.53;;
61291;SDS011;47165;42.664;23.368;2023-05-10T10:10:25;4.95;;;3.58;;
61291;SDS011;47165;42.664;23.368;2023-05-10T10:12:52;4.93;;;2.55;;
61291;SDS011;47165;42.664;23.368;2023-05-10T10:15:17;5.35;;;3.10;;
61291;SDS011;47165;42.664;23.368;2023-05-10T10:17:43;6.53;;;4.30;;
61291;SDS011;47165;42.664;23.368;2023-05-10T10:20:10;11.27;;;5.95;;
61291;SDS011;47165;42.664;23.368;2023-05-10T10:22:36;9.52;;;4.95;;
61291;SDS011;47165;42.664;23.368;2023-05-10T10:25:02;4.93;;;3.60;;
61291;SDS011;47165;42.664;23.368;2023-05-10T10:30:16;6.40;;;4.43;;
61291;SDS011;47165;42.664;23.368;2023-05-10T10:33:18;4.93;;;3.70;;
61291;SDS011;47165;42.664;23.368;2023-05-10T10:35:52;5.35;;;3.38;;
61291;SDS011;47165;42.664;23.368;2023-05-10T10:38:18;5.20;;;3.25;;
61291;SDS011;47165;42.664;23.368;2023-05-10T10:40:43;9.68;;;4.97;;
61291;SDS011;47165;42.664;23.368;2023-05-10T10:43:25;6.78;;;5.18;;
61291;SDS011;47165;42.664;23.368;2023-05-10T10:48:40;2.45;;;2.25;;
61291;SDS011;47165;42.664;23.368;2023-05-10T10:51:12;3.22;;;2.13;;
61291;SDS011;47165;42.664;23.368;2023-05-10T10:53:38;3.75;;;2.25;;
61291;SDS011;47165;42.664;23.368;2023-05-10T10:56:07;4.07;;;3.45;;
61291;SDS011;47165;42.664;23.368;2023-05-10T10:58:34;7.22;;;4.53;;
61291;SDS011;47165;42.664;23.368;2023-05-10T11:03:39;4.45;;;3.75;;
61291;SDS011;47165;42.664;23.368;2023-05-10T11:06:04;3.25;;;2.90;;
61291;SDS011;47165;42.664;23.368;2023-05-10T11:08:31;6.53;;;4.18;;
61291;SDS011;47165;42.664;23.368;2023-05-10T11:16:13;8.20;;;4.05;;
61291;SDS011;47165;42.664;23.368;2023-05-10T11:19:06;2.90;;;2.38;;
61291;SDS011;47165;42.664;23.368;2023-05-10T11:21:33;5.25;;;3.78;;
61291;SDS011;47165;42.664;23.368;2023-05-10T11:24:00;6.88;;;4.13;;
61291;SDS011;47165;42.664;23.368;2023-05-10T11:26:31;7.47;;;4.57;;
61291;SDS011;47165;42.664;23.368;2023-05-10T11:28:58;5.28;;;3.58;;
61291;SDS011;47165;42.664;23.368;2023-05-10T11:31:25;5.47;;;2.90;;
61291;SDS011;47165;42.664;23.368;2023-05-10T11:33:55;6.03;;;2.72;;
61291;SDS011;47165;42.664;23.368;2023-05-10T11:36:26;5.10;;;3.10;;
61291;SDS011;47165;42.664;23.368;2023-05-10T11:38:53;4.20;;;3.38;;
61291;SDS011;47165;42.664;23.368;2023-05-10T11:41:19;3.60;;;2.45;;
61291;SDS011;47165;42.664;23.368;2023-05-10T11:43:52;4.55;;;3.50;;
61291;SDS011;47165;42.664;23.368;2023-05-10T11:46:20;3.95;;;2.92;;
61291;SDS011;47165;42.664;23.368;2023-05-10T11:48:50;4.78;;;3.13;;
61291;SDS011;47165;42.664;23.368;2023-05-10T11:51:20;4.85;;;3.00;;
61291;SDS011;47165;42.664;23.368;2023-05-10T11:53:46;5.10;;;3.22;;
61291;SDS011;47165;42.664;23.368;2023-05-10T11:56:13;5.20;;;3.42;;
61291;SDS011;47165;42.664;23.368;2023-05-10T11:58:39;4.85;;;2.85;;
61291;SDS011;47165;42.664;23.368;2023-05-10T12:01:05;8.18;;;4.60;;
61291;SDS011;47165;42.664;23.368;2023-05-10T12:03:32;7.68;;;4.20;;
61291;SDS011;47165;42.664;23.368;2023-05-10T12:05:58;5.70;;;4.00;;
61291;SDS011;47165;42.664;23.368;2023-05-10T12:08:26;5.38;;;3.42;;
61291;SDS011;47165;42.664;23.368;2023-05-10T12:11:04;3.20;;;2.45;;
61291;SDS011;47165;42.664;23.368;2023-05-10T12:13:31;4.60;;;3.10;;
61291;SDS011;47165;42.664;23.368;2023-05-10T12:15:57;6.82;;;4.90;;
61291;SDS011;47165;42.664;23.368;2023-05-10T12:18:23;3.85;;;2.55;;
61291;SDS011;47165;42.664;23.368;2023-05-10T12:20:51;8.73;;;6.15;;
61291;SDS011;47165;42.664;23.368;2023-05-10T12:23:18;7.90;;;4.05;;
61291;SDS011;47165;42.664;23.368;2023-05-10T12:25:45;8.68;;;5.43;;
61291;SDS011;47165;42.664;23.368;2023-05-10T12:28:10;5.78;;;3.28;;
61291;SDS011;47165;42.664;23.368;2023-05-10T12:30:36;4.88;;;3.70;;
61291;SDS011;47165;42.664;23.368;2023-05-10T12:33:09;4.03;;;3.20;;
61291;SDS011;47165;42.664;23.368;2023-05-10T12:35:46;5.07;;;3.08;;
61291;SDS011;47165;42.664;23.368;2023-05-10T12:38:24;5.07;;;2.45;;
61291;SDS011;47165;42.664;23.368;2023-05-10T12:40:50;8.30;;;4.80;;
61291;SDS011;47165;42.664;23.368;2023-05-10T12:43:16;5.28;;;2.35;;
61291;SDS011;47165;42.664;23.368;2023-05-10T12:45:41;4.25;;;3.63;;
61291;SDS011;47165;42.664;23.368;2023-05-10T12:48:07;4.13;;;2.60;;
61291;SDS011;47165;42.664;23.368;2023-05-10T12:50:32;5.22;;;3.63;;
61291;SDS011;47165;42.664;23.368;2023-05-10T12:52:57;8.32;;;4.85;;
61291;SDS011;47165;42.664;23.368;2023-05-10T12:55:23;3.10;;;2.25;;
61291;SDS011;47165;42.664;23.368;2023-05-10T12:57:48;4.55;;;2.95;;
61291;SDS011;47165;42.664;23.368;2023-05-10T13:00:14;4.07;;;2.83;;
61291;SDS011;47165;42.664;23.368;2023-05-10T13:02:40;4.63;;;3.35;;
61291;SDS011;47165;42.664;23.368;2023-05-10T13:05:05;6.22;;;3.40;;
61291;SDS011;47165;42.664;23.368;2023-05-10T13:07:31;5.88;;;4.03;;
61291;SDS011;47165;42.664;23.368;2023-05-10T13:09:56;8.57;;;5.22;;
61291;SDS011;47165;42.664;23.368;2023-05-10T13:12:22;5.45;;;2.33;;
61291;SDS011;47165;42.664;23.368;2023-05-10T13:14:47;5.28;;;2.70;;
61291;SDS011;47165;42.664;23.368;2023-05-10T13:17:12;4.90;;;2.97;;
61291;SDS011;47165;42.664;23.368;2023-05-10T13:19:38;3.20;;;2.30;;
61291;SDS011;47165;42.664;23.368;2023-05-10T13:22:03;5.68;;;3.50;;
61291;SDS011;47165;42.664;23.368;2023-05-10T13:24:29;7.65;;;2.78;;
61291;SDS011;47165;42.664;23.368;2023-05-10T13:26:54;4.97;;;3.45;;
61291;SDS011;47165;42.664;23.368;2023-05-10T13:29:20;4.93;;;3.30;;
61291;SDS011;47165;42.664;23.368;2023-05-10T13:31:47;8.82;;;4.03;;
61291;SDS011;47165;42.664;23.368;2023-05-10T13:34:13;5.13;;;2.92;;
61291;SDS011;47165;42.664;23.368;2023-05-10T13:36:38;5.10;;;3.22;;
61291;SDS011;47165;42.664;23.368;2023-05-10T13:39:04;4.95;;;2.60;;
61291;SDS011;47165;42.664;23.368;2023-05-10T13:41:30;5.40;;;2.90;;
61291;SDS011;47165;42.664;23.368;2023-05-10T13:43:55;4.00;;;2.72;;
61291;SDS011;47165;42.664;23.368;2023-05-10T13:46:21;8.48;;;5.22;;
61291;SDS011;47165;42.664;23.368;2023-05-10T13:48:46;3.40;;;2.10;;
61291;SDS011;47165;42.664;23.368;2023-05-10T13:51:12;4.68;;;3.05;;
61291;SDS011;47165;42.664;23.368;2023-05-10T13:53:37;4.65;;;3.03;;
61291;SDS011;47165;42.664;23.368;2023-05-10T13:56:03;5.47;;;3.45;;
61291;SDS011;47165;42.664;23.368;2023-05-10T13:58:28;3.92;;;2.13;;
61291;SDS011;47165;42.664;23.368;2023-05-10T14:00:54;3.92;;;2.08;;
61291;SDS011;47165;42.664;23.368;2023-05-10T14:03:19;7.70;;;3.35;;
61291;SDS011;47165;42.664;23.368;2023-05-10T14:05:44;6.63;;;4.38;;
61291;SDS011;47165;42.664;23.368;2023-05-10T14:08:11;4.70;;;3.47;;
61291;SDS011;47165;42.664;23.368;2023-05-10T14:10:38;6.38;;;3.80;;
61291;SDS011;47165;42.664;23.368;2023-05-10T14:13:04;3.00;;;1.85;;
61291;SDS011;47165;42.664;23.368;2023-05-10T14:15:30;6.80;;;3.85;;
61291;SDS011;47165;42.664;23.368;2023-05-10T14:17:55;6.63;;;4.30;;
61291;SDS011;47165;42.664;23.368;2023-05-10T14:20:21;7.63;;;4.28;;
61291;SDS011;47165;42.664;23.368;2023-05-10T14:22:46;6.00;;;3.65;;
61291;SDS011;47165;42.664;23.368;2023-05-10T14:25:11;8.13;;;3.53;;
61291;SDS011;47165;42.664;23.368;2023-05-10T14:27:37;5.80;;;3.80;;
61291;SDS011;47165;42.664;23.368;2023-05-10T14:30:03;4.53;;;2.80;;
61291;SDS011;47165;42.664;23.368;2023-05-10T14:32:28;3.80;;;2.35;;
61291;SDS011;47165;42.664;23.368;2023-05-10T14:34:54;2.97;;;2.20;;
61291;SDS011;47165;42.664;23.368;2023-05-10T14:37:20;4.57;;;2.38;;
61291;SDS011;47165;42.664;23.368;2023-05-10T14:39:46;6.68;;;3.47;;
61291;SDS011;47165;42.664;23.368;2023-05-10T14:42:11;9.10;;;5.25;;
61291;SDS011;47165;42.664;23.368;2023-05-10T14:44:37;5.10;;;3.80;;
61291;SDS011;47165;42.664;23.368;2023-05-10T14:47:02;6.93;;;4.13;;
61291;SDS011;47165;42.664;23.368;2023-05-10T14:49:28;5.32;;;3.63;;
61291;SDS011;47165;42.664;23.368;2023-05-10T14:51:54;5.38;;;3.78;;
61291;SDS011;47165;42.664;23.368;2023-05-10T14:54:19;8.15;;;4.32;;
61291;SDS011;47165;42.664;23.368;2023-05-10T14:56:45;5.07;;;3.55;;
61291;SDS011;47165;42.664;23.368;2023-05-10T14:59:11;4.15;;;3.33;;
61291;SDS011;47165;42.664;23.368;2023-05-10T15:01:36;9.48;;;3.75;;